Meteo Giornale » Osservazioni meteo Messico » Mexico City-Licenci

ore: 16:40 - Osservazioni Meteo Mexico City-Licenci
Lat. 19° 26' N Lon. 99° 6' W Alt. 2238 metri s.l.m.

coperto America/Mexico_City

29 °C

Coperto

Temp. 24 Ore

15 °C

29 °C

Sud

9.3 Km/h

Dew point 2 °C

Umidità 17 %

Visibilità  10 Km

Il sole sorge alle ore 07:12

Il sole tramonta alle ore 19:57

Data e Ora Cielo e Fenomeni T °C DP °C Um. % Pres. hPa Vis. km Vento km/h
Oggi h: 16:40 coperto Coperto 29 2 17 1022 10 S 9.3
Oggi h: 15:50 molto_nuvoloso Molto Nuvoloso 28 2 18 1023 10 N/NO 11.1
Oggi h: 14:44 molto_nuvoloso Molto Nuvoloso 27 3 21 1024 10 NE 11.1
Oggi h: 13:47 nuvoloso Nuvoloso 27 3 21 1026 11 S 9.3
Oggi h: 12:45 nuvoloso Nuvoloso 26 3 22 1026 10 N 11.1
Oggi h: 11:45 molto_nuvoloso Molto Nuvoloso 25 3 23 1027 10 N 0
Oggi h: 11:35 molto_nuvoloso Molto Nuvoloso 25 3 23 1027 10 NE 9.3
Oggi h: 10:45 molto_nuvoloso Molto Nuvoloso 23 5 31 1027 10 N 0
Oggi h: 09:46 molto_nuvoloso Molto Nuvoloso 21 5 35 1027 10 N 0
Oggi h: 09:01 nuvoloso Nuvoloso 19 5 39 1027 11 N 0
Oggi h: 08:45 nuvoloso Nuvoloso 17 5 45 1027 11 E/SE 7.4
Oggi h: 07:45 poco_nuvoloso Poco Nuvoloso 15 5 51 1027 13 E/NE 14.8
Oggi h: 06:45 sereno Sereno 17 5 45 1027 13 N 0
Oggi h: 05:46 sereno Sereno 17 4 41 1026 13 N 0
Oggi h: 04:40 sereno Sereno 18 4 39 1026 13 N 0
Oggi h: 03:44 sereno Sereno 19 4 37 1026 10 N 5.5
Oggi h: 02:45 sereno Sereno 19 4 37 1026 10 N 5.5
Oggi h: 01:45 sereno Sereno 20 2 30 1027 14 N 0
Oggi h: 00:46 poco_nuvoloso Poco Nuvoloso 19 2 32 1027 14 NE 9.3
Ieri h: 23:45 poco_nuvoloso Poco Nuvoloso 20 3 32 1028 14 E/NE 11.1
Ieri h: 22:46 molto_nuvoloso Molto Nuvoloso 21 4 32 1027 14 N/NE 16.7
Ieri h: 22:36 molto_nuvoloso Molto Nuvoloso 21 7 40 1027 14 NE 11.1
Ieri h: 21:45 molto_nuvoloso Molto Nuvoloso 23 6 33 1026 14 S 9.3
Ieri h: 20:58 coperto Coperto 22 5 32 1026 10 SE 25.9
Ieri h: 20:49 coperto Coperto 23 7 35 1026 14 SE 14.8
Ieri h: 20:33 coperto_pioggia Pioggia Debole 24 8 35 1026 14 SE 22.2
Ieri h: 19:41 molto_nuvoloso Molto Nuvoloso 26 5 25 1025 14 S/SE 25.9
Ieri h: 18:46 molto_nuvoloso Molto Nuvoloso 27 3 21 1023 14 E/SE 24
Ieri h: 17:49 molto_nuvoloso Molto Nuvoloso 28 0 16 1023 14 N/NO 13